Last reported at 2014-Jan-17 02:33 UTC.
Time now 2014-Apr-18 10:49 UTC

Location: N 61°36' E 001°18'.
View on Google Maps.

See reports from other nearby stations

Tides Stations Pressure Air Temp Water Temp Dewpoint Dewpoint depression Visibility Wind Speed Wind Dir Waves Ship positions

  
sailing weather and tide predictions

Current Weather: station 63115

date/time (UTC)wind fromknots sea level pressurealtimeterstation pressurevisibilityair tempwater tempwave heightnotes
2014-Apr-18 09:00 220 9 10.8 7.5 2.7
2014-Apr-18 08:00 220 7 10.8 5.8 2.9
2014-Apr-18 07:00 270 3 27.0 4.8 3.0
2014-Apr-18 06:00 300 3 27.0 4.6 2.9
2014-Apr-18 05:00 290 7 27.0 4.5 3.0
2014-Apr-18 04:00 320 7 27.0 4.5 3.1
2014-Apr-18 03:00 330 8 27.0 4.4 3.1
2014-Apr-18 02:00 330 11 10.8 4.3 3.5
2014-Apr-18 01:00 330 15 10.8 4.7 3.8
2014-Apr-18 00:00 330 15 10.8 4.9 4.4
2014-Apr-17 23:00 330 18 10.8 5.0 4.5
2014-Apr-17 22:00 340 20 10.8 5.0 4.6
2014-Apr-17 21:00 330 22 10.8 5.3 4.4
2014-Apr-17 20:00 350 27 10.8 5.5 4.0
2014-Apr-17 19:00 350 27 5.4 5.1 3.6
2014-Apr-17 18:00 350 31 5.4 5.6 3.1
2014-Apr-17 17:00 350 27 5.4 5.6 2.7
2014-Apr-17 14:00 310 17 10.8 6.2 2.8
2014-Apr-17 13:00 310 14 27.0 6.2 2.9
2014-Apr-17 12:00 310 14 5.4 6.0 3.0
2014-Apr-17 11:00 300 13 2.2 6.3 2.9
2014-Apr-17 10:00 310 12 27.0 5.9 2.8
2014-Apr-17 09:00 260 12 27.0 6.6 2.8
2014-Apr-17 08:00 260 11 27.0 6.1 2.8
2014-Apr-17 07:00 250 15 10.8 6.6 2.9
2014-Apr-17 06:00 250 14 10.8 6.0 2.9
2014-Apr-17 05:00 240 18 2.2 5.8 2.8
2014-Apr-17 04:00 220 14 10.8 8.8 2.7
2014-Apr-17 03:00 220 9 5.4 7.6 2.9
2014-Apr-17 02:00 260 12 2.2 6.8 3.0
2014-Apr-17 01:00 210 20 1.1 9.2 3.0
2014-Apr-17 00:00 200 23 1.1 9.7 3.0
2014-Apr-16 23:00 200 24 2.2 9.3 3.2
2014-Apr-16 22:00 200 24 2.2 9.2 3.1
2014-Apr-16 21:00 210 20 2.2 9.0 3.2